createdAt,value
2022-11-17T00:00:41.201Z,938.0281372
2022-11-17T00:01:42.240Z,938.0095215
2022-11-17T00:02:42.797Z,938.050293
2022-11-17T00:03:43.227Z,937.9907837
2022-11-17T00:04:44.156Z,938.0025635
2022-11-17T00:06:14.775Z,937.9460449
2022-11-17T00:07:15.408Z,937.9492188
2022-11-17T00:08:15.697Z,937.9796753
2022-11-17T00:09:16.228Z,937.9230347
2022-11-17T00:10:16.766Z,937.9213867
2022-11-17T00:11:18.236Z,937.8560791
2022-11-17T00:12:22.540Z,937.8099976
2022-11-17T00:13:19.132Z,937.7873535
2022-11-17T00:14:19.655Z,937.8149414
2022-11-17T00:15:20.113Z,937.8237305
2022-11-17T00:16:20.588Z,937.8421631
2022-11-17T00:17:21.070Z,937.8338013
2022-11-17T00:18:21.535Z,937.835083
2022-11-17T00:19:22.038Z,937.8264771
2022-11-17T00:20:23.231Z,937.8290405
2022-11-17T00:21:23.978Z,937.7966919
2022-11-17T00:22:24.762Z,937.7368164
2022-11-17T00:23:25.200Z,937.6177979
2022-11-17T00:24:25.622Z,937.5604858
2022-11-17T00:25:27.068Z,937.5281372
2022-11-17T00:26:27.533Z,937.5022583
2022-11-17T00:27:28.045Z,937.4918823
2022-11-17T00:28:28.472Z,937.4578857
2022-11-17T00:29:28.906Z,937.4134521
2022-11-17T00:30:30.312Z,937.3134155
2022-11-17T00:31:31.714Z,937.3052979
2022-11-17T00:32:32.201Z,937.2147827
2022-11-17T00:33:32.951Z,937.2614136
2022-11-17T00:34:33.053Z,937.3146973
2022-11-17T00:35:33.528Z,937.3823242
2022-11-17T00:36:34.046Z,937.4051514
2022-11-17T00:37:34.665Z,937.3887329
2022-11-17T00:38:35.203Z,937.3912354
2022-11-17T00:39:35.666Z,937.2739258
2022-11-17T00:40:36.125Z,937.326416
2022-11-17T00:41:37.201Z,937.3010864
2022-11-17T00:42:37.751Z,937.2803345
2022-11-17T00:43:38.298Z,937.2767944
2022-11-17T00:44:38.808Z,937.3334351
2022-11-17T00:45:40.193Z,937.319519
2022-11-17T00:46:40.610Z,937.2387695
2022-11-17T00:47:41.160Z,937.1934204
2022-11-17T00:48:41.590Z,937.1311035
2022-11-17T00:49:42.033Z,937.1105957
2022-11-17T00:50:42.487Z,937.0507813
2022-11-17T00:52:13.926Z,937.022522
2022-11-17T00:53:14.392Z,937.069397
2022-11-17T00:54:14.866Z,937.0202637
2022-11-17T00:55:15.384Z,936.9746704
2022-11-17T00:56:15.745Z,936.9196777
2022-11-17T00:57:16.170Z,936.8479614
2022-11-17T00:58:17.205Z,936.8397827
2022-11-17T00:59:17.684Z,936.7304688
2022-11-17T01:00:18.119Z,936.7420044
2022-11-17T01:01:19.530Z,936.6490479
2022-11-17T01:02:19.952Z,936.6409302
2022-11-17T01:03:20.506Z,936.5963135
2022-11-17T01:04:20.799Z,936.5752563
2022-11-17T01:05:22.569Z,936.5404663
2022-11-17T01:06:23.040Z,936.6045532
2022-11-17T01:07:23.529Z,936.6657715
2022-11-17T01:08:24.020Z,936.6497803
2022-11-17T01:09:24.364Z,936.6367188
2022-11-17T01:10:24.824Z,936.678772
2022-11-17T01:11:25.991Z,936.7240601
2022-11-17T01:12:26.469Z,936.7612305
2022-11-17T01:13:27.051Z,936.7393188
2022-11-17T01:14:27.348Z,936.6998291
2022-11-17T01:15:27.745Z,936.6188965
2022-11-17T01:16:28.252Z,936.5390625
2022-11-17T01:17:28.684Z,936.5154419
2022-11-17T01:18:29.249Z,936.5040894
2022-11-17T01:19:29.542Z,936.5770874
2022-11-17T01:20:29.952Z,936.597168
2022-11-17T01:21:31.014Z,936.5889893
2022-11-17T01:22:31.517Z,936.5932617
2022-11-17T01:23:32.086Z,936.6151733
2022-11-17T01:24:32.398Z,936.6099854
2022-11-17T01:25:32.890Z,936.5907593
2022-11-17T01:26:33.376Z,936.4815674
2022-11-17T01:27:34.468Z,936.4970093
2022-11-17T01:28:34.925Z,936.4604492
2022-11-17T01:29:35.323Z,936.5042725
2022-11-17T01:30:35.730Z,936.4962769
2022-11-17T01:31:36.669Z,936.5131226
2022-11-17T01:32:37.775Z,936.5117188
2022-11-17T01:33:38.335Z,936.4945068
2022-11-17T01:34:38.708Z,936.4874268
2022-11-17T01:35:39.130Z,936.4782715
2022-11-17T01:36:40.185Z,936.4711914
2022-11-17T01:37:40.627Z,936.5834351
2022-11-17T01:38:41.080Z,936.6312256
2022-11-17T01:39:41.529Z,936.6741943
2022-11-17T01:40:41.979Z,936.6038818
2022-11-17T01:42:13.532Z,936.6620483
2022-11-17T01:43:13.997Z,936.7268677
2022-11-17T01:44:14.426Z,936.8029175
2022-11-17T01:45:14.879Z,936.8205566
2022-11-17T01:46:15.332Z,936.8295288
2022-11-17T01:47:15.727Z,936.8173218
2022-11-17T01:48:16.793Z,936.8651733
2022-11-17T01:49:17.184Z,936.8609619
2022-11-17T01:50:17.632Z,936.9337769
2022-11-17T01:51:18.980Z,937.0172119
2022-11-17T01:52:19.394Z,936.9801636
2022-11-17T01:53:19.874Z,936.9960327
2022-11-17T01:54:20.254Z,937.0567017
2022-11-17T01:55:20.747Z,937.0429077
2022-11-17T01:56:21.230Z,937.0615845
2022-11-17T01:57:21.673Z,937.059082
2022-11-17T01:58:22.134Z,936.961731
2022-11-17T01:59:23.165Z,936.9101563
2022-11-17T02:00:23.613Z,936.8672485
2022-11-17T02:01:25.042Z,936.8746948
2022-11-17T02:02:25.488Z,936.7954712
2022-11-17T02:03:25.963Z,936.7954102
2022-11-17T02:04:26.349Z,936.8137207
2022-11-17T02:05:26.761Z,936.8034668
2022-11-17T02:06:27.233Z,936.8065796
2022-11-17T02:07:27.758Z,936.8389282
2022-11-17T02:08:28.780Z,936.8562012
2022-11-17T02:09:29.170Z,936.8018799
2022-11-17T02:10:29.599Z,936.7478027
2022-11-17T02:11:30.985Z,936.6868896
2022-11-17T02:12:31.447Z,936.7000732
2022-11-17T02:13:32.222Z,936.6629639
2022-11-17T02:14:32.386Z,936.6498413
2022-11-17T02:15:32.852Z,936.5683594
2022-11-17T02:16:33.262Z,936.5634155
2022-11-17T02:17:33.672Z,936.52948
2022-11-17T02:18:34.175Z,936.552002
2022-11-17T02:19:34.589Z,936.5480957
2022-11-17T02:20:35.068Z,936.6095581
2022-11-17T02:21:36.478Z,936.5926514
2022-11-17T02:22:36.882Z,936.5742188
2022-11-17T02:23:37.740Z,936.5837402
2022-11-17T02:24:37.780Z,936.5496826
2022-11-17T02:25:38.251Z,936.4762573
2022-11-17T02:26:38.669Z,936.508606
2022-11-17T02:27:39.089Z,936.5230713
2022-11-17T02:28:40.467Z,936.5814819
2022-11-17T02:29:40.939Z,936.5407715
2022-11-17T02:30:41.399Z,936.5217285
2022-11-17T02:31:42.983Z,936.5443726
2022-11-17T02:33:13.664Z,936.5734253
2022-11-17T02:34:14.018Z,936.6088867
2022-11-17T02:35:14.558Z,936.602417
2022-11-17T02:36:15.018Z,936.5823364
2022-11-17T02:37:15.452Z,936.5548706
2022-11-17T02:38:15.909Z,936.5183105
2022-11-17T02:39:16.281Z,936.5343628
2022-11-17T02:40:17.475Z,936.4706421
2022-11-17T02:41:17.957Z,936.4916382
2022-11-17T02:42:19.215Z,936.4818726
2022-11-17T02:43:19.653Z,936.4625244
2022-11-17T02:44:20.072Z,936.3492432
2022-11-17T02:45:20.509Z,936.3825073
2022-11-17T02:46:20.912Z,936.3947754
2022-11-17T02:47:21.366Z,936.428772
2022-11-17T02:48:21.833Z,936.3624268
2022-11-17T02:49:22.241Z,936.3988037
2022-11-17T02:50:27.905Z,936.4285889
2022-11-17T02:51:23.139Z,936.3980713
2022-11-17T02:52:24.219Z,936.319397
2022-11-17T02:53:24.687Z,936.2371826
2022-11-17T02:54:25.125Z,936.2015381
2022-11-17T02:55:25.542Z,936.1536865
2022-11-17T02:56:25.948Z,936.0161743
2022-11-17T02:57:26.349Z,935.991272
2022-11-17T02:58:26.883Z,936.0809326
2022-11-17T02:59:28.248Z,936.0994263
2022-11-17T03:00:28.682Z,936.0614014
2022-11-17T03:01:29.109Z,936.1504517
2022-11-17T03:02:30.191Z,936.1359253
2022-11-17T03:03:30.661Z,936.1062012
2022-11-17T03:04:31.111Z,936.1439209
2022-11-17T03:05:31.585Z,936.09375
2022-11-17T03:06:32.057Z,936.0356445
2022-11-17T03:07:32.543Z,936.0388184
2022-11-17T03:08:33.690Z,936.0042114
2022-11-17T03:09:34.153Z,935.9976807
2022-11-17T03:10:34.584Z,935.9182129
2022-11-17T03:11:35.007Z,935.8891602
2022-11-17T03:12:36.187Z,936.0064087
2022-11-17T03:13:36.903Z,935.9126587
2022-11-17T03:14:37.006Z,935.9198608
2022-11-17T03:15:37.466Z,936.0508423
2022-11-17T03:16:37.883Z,936.1308594
2022-11-17T03:17:38.313Z,936.105957
2022-11-17T03:18:38.784Z,936.0289307
2022-11-17T03:19:39.157Z,935.9579468
2022-11-17T03:20:39.567Z,936.032959
2022-11-17T03:21:40.072Z,936.1027222
2022-11-17T03:22:41.652Z,936.0282593
2022-11-17T03:24:12.334Z,935.8723145
2022-11-17T03:25:12.730Z,935.9612427
2022-11-17T03:26:13.189Z,935.9515381
2022-11-17T03:27:13.694Z,936.0178833
2022-11-17T03:28:15.017Z,935.9069824
2022-11-17T03:29:15.502Z,935.9481812
2022-11-17T03:30:15.885Z,936.0339355
2022-11-17T03:31:16.293Z,935.9579468
2022-11-17T03:32:16.787Z,936.0540771
2022-11-17T03:33:17.211Z,936.0686035
2022-11-17T03:34:18.245Z,936.1278076
2022-11-17T03:35:18.641Z,936.1940918
2022-11-17T03:36:19.051Z,936.104126
2022-11-17T03:37:19.460Z,936.0889893
2022-11-17T03:38:20.494Z,936.1414185
2022-11-17T03:39:20.973Z,936.0284424
2022-11-17T03:40:21.380Z,936.1254883
2022-11-17T03:41:21.808Z,936.1690674
2022-11-17T03:42:22.977Z,936.1270142
2022-11-17T03:43:23.433Z,936.1196899
2022-11-17T03:44:23.891Z,936.1213379
2022-11-17T03:45:24.322Z,936.1342163
2022-11-17T03:46:24.808Z,936.2086182
2022-11-17T03:47:25.224Z,936.2554932
2022-11-17T03:48:25.642Z,936.2208862
2022-11-17T03:49:26.173Z,936.2150269
2022-11-17T03:50:26.586Z,936.2160034
2022-11-17T03:51:27.053Z,936.3414307
2022-11-17T03:52:28.209Z,936.2453003
2022-11-17T03:53:29.187Z,936.2420044
2022-11-17T03:54:29.590Z,936.1773682
2022-11-17T03:55:30.082Z,936.1918945
2022-11-17T03:56:30.525Z,936.2004395
2022-11-17T03:57:31.000Z,936.1464233
2022-11-17T03:58:31.423Z,936.1609497
2022-11-17T03:59:32.471Z,936.201416
2022-11-17T04:00:32.873Z,936.2402344
2022-11-17T04:01:33.338Z,936.2234497
2022-11-17T04:02:34.676Z,936.192627
2022-11-17T04:03:35.465Z,936.2095337
2022-11-17T04:04:35.502Z,936.1642456
2022-11-17T04:05:35.908Z,936.1351318
2022-11-17T04:06:36.319Z,936.1196899
2022-11-17T04:07:36.993Z,936.1294556
2022-11-17T04:08:38.212Z,936.1158447
2022-11-17T04:09:38.644Z,936.1062012
2022-11-17T04:10:39.044Z,936.1051636
2022-11-17T04:11:39.454Z,936.1656494
2022-11-17T04:13:11.429Z,936.1958008
2022-11-17T04:14:11.833Z,936.1923218
2022-11-17T04:15:12.269Z,936.1777954
2022-11-17T04:16:12.661Z,936.2435303
2022-11-17T04:17:13.078Z,936.1607666
2022-11-17T04:18:13.466Z,936.1397705
2022-11-17T04:19:14.471Z,936.1333008
2022-11-17T04:20:14.889Z,936.128418
2022-11-17T04:21:15.285Z,936.1220093
2022-11-17T04:22:16.494Z,936.1760864
2022-11-17T04:23:16.883Z,936.1390381
2022-11-17T04:24:17.346Z,936.1018677
2022-11-17T04:25:17.794Z,936.1268921
2022-11-17T04:26:18.218Z,936.1315918
2022-11-17T04:27:18.643Z,936.0985718
2022-11-17T04:28:19.056Z,936.102356
2022-11-17T04:29:19.487Z,936.0507813
2022-11-17T04:30:19.896Z,936.0692139
2022-11-17T04:31:20.298Z,936.0725708
2022-11-17T04:32:21.523Z,936.0839233
2022-11-17T04:33:21.887Z,936.055603
2022-11-17T04:34:22.573Z,936.0651855
2022-11-17T04:35:22.997Z,936.1386108
2022-11-17T04:36:23.402Z,936.0822754
2022-11-17T04:37:23.846Z,936.0788574
2022-11-17T04:38:24.273Z,936.1347046
2022-11-17T04:39:24.676Z,936.0932617
2022-11-17T04:40:25.138Z,936.0891113
2022-11-17T04:41:25.579Z,936.1345215
2022-11-17T04:42:26.559Z,936.0974121
2022-11-17T04:43:26.978Z,936.1433716
2022-11-17T04:44:27.392Z,936.1182251
2022-11-17T04:45:28.500Z,936.0634155
2022-11-17T04:46:28.961Z,936.1054688
2022-11-17T04:47:29.424Z,936.0925903
2022-11-17T04:48:29.800Z,936.076355
2022-11-17T04:49:30.297Z,936.0546875
2022-11-17T04:50:30.713Z,936.0423584
2022-11-17T04:51:31.120Z,936.0578613
2022-11-17T04:52:32.543Z,936.0181274
2022-11-17T04:53:33.416Z,936.0013428
2022-11-17T04:54:33.371Z,936.0053101
2022-11-17T04:55:33.821Z,936.0383301
2022-11-17T04:56:34.246Z,936.0552368
2022-11-17T04:57:34.731Z,936.076355
2022-11-17T04:58:35.124Z,936.0341187
2022-11-17T04:59:36.485Z,936.0025024
2022-11-17T05:00:36.916Z,936.024353
2022-11-17T05:01:37.338Z,936.0267334
2022-11-17T05:02:38.663Z,936.0324707
2022-11-17T05:03:38.896Z,936.0371094
2022-11-17T05:04:39.348Z,936.0437622
2022-11-17T05:05:39.761Z,936.0895386
2022-11-17T05:07:10.739Z,936.1082764
2022-11-17T05:08:11.152Z,936.1138916
2022-11-17T05:09:11.585Z,936.1049805
2022-11-17T05:10:12.045Z,936.0958862
2022-11-17T05:11:12.509Z,936.1081543
2022-11-17T05:12:12.872Z,936.0529785
2022-11-17T05:13:14.241Z,936.0237427
2022-11-17T05:14:14.621Z,935.9785767
2022-11-17T05:15:15.034Z,935.9945068
2022-11-17T05:16:15.462Z,936.0406494
2022-11-17T05:17:15.877Z,936.0875854
2022-11-17T05:18:16.480Z,936.1110229
2022-11-17T05:19:16.759Z,936.1464844
2022-11-17T05:20:17.217Z,936.1262207
2022-11-17T05:21:17.706Z,936.1537476
2022-11-17T05:22:18.160Z,936.097168
2022-11-17T05:23:19.197Z,936.038269
2022-11-17T05:24:19.615Z,936.0388184
2022-11-17T05:25:20.079Z,936.0018921
2022-11-17T05:26:20.538Z,936.0025635
2022-11-17T05:27:21.019Z,935.9575806
2022-11-17T05:28:21.478Z,935.9606934
2022-11-17T05:29:22.764Z,935.9403687
2022-11-17T05:30:23.190Z,935.9317017
2022-11-17T05:31:23.638Z,935.90625
2022-11-17T05:32:24.094Z,935.9556274
2022-11-17T05:33:25.257Z,935.9523926
2022-11-17T05:34:25.689Z,935.9249878
2022-11-17T05:35:26.112Z,935.920105
2022-11-17T05:36:26.543Z,935.8651733
2022-11-17T05:37:26.937Z,935.835144
2022-11-17T05:38:28.022Z,935.8189697
2022-11-17T05:39:28.455Z,935.8965454
2022-11-17T05:40:28.878Z,935.8659668
2022-11-17T05:41:29.259Z,935.8538818
2022-11-17T05:42:29.672Z,935.8982544
2022-11-17T05:43:30.740Z,935.8982544
2022-11-17T05:44:31.148Z,935.894165
2022-11-17T05:45:31.593Z,935.9223633
2022-11-17T05:46:32.004Z,935.991272
2022-11-17T05:47:32.411Z,935.9440918
2022-11-17T05:48:32.845Z,935.869873
2022-11-17T05:49:33.272Z,935.9118652
2022-11-17T05:50:33.702Z,935.8845215
2022-11-17T05:51:34.152Z,935.7962646
2022-11-17T05:52:34.594Z,935.8334351
2022-11-17T05:53:36.064Z,935.8286743
2022-11-17T05:54:36.162Z,935.8392334
2022-11-17T05:55:36.654Z,935.8570557
2022-11-17T05:56:37.091Z,935.8399048
2022-11-17T05:57:37.514Z,935.795166
2022-11-17T05:58:37.980Z,935.8591919
2022-11-17T05:59:39.627Z,935.8275146
2022-11-17T06:01:10.306Z,935.8459473
2022-11-17T06:02:10.746Z,935.8509521
2022-11-17T06:03:12.007Z,935.8920288
2022-11-17T06:04:12.512Z,935.888916
2022-11-17T06:05:18.700Z,935.8288574
2022-11-17T06:06:13.998Z,935.8515625
2022-11-17T06:07:14.548Z,935.8483887
2022-11-17T06:08:14.909Z,935.8457642
2022-11-17T06:09:15.380Z,935.8804932
2022-11-17T06:10:15.773Z,935.8482666
2022-11-17T06:11:16.168Z,935.8861084
2022-11-17T06:12:16.627Z,935.9094238
2022-11-17T06:13:17.999Z,935.8651733
2022-11-17T06:14:18.481Z,935.9160156
2022-11-17T06:15:18.892Z,935.8822021
2022-11-17T06:16:19.299Z,935.8789063
2022-11-17T06:17:22.439Z,936.0008545
2022-11-17T06:18:20.191Z,935.9668579
2022-11-17T06:19:20.625Z,936.0232544
2022-11-17T06:20:21.082Z,935.9932861
2022-11-17T06:21:21.522Z,936.0175171
2022-11-17T06:22:21.932Z,936.0999756
2022-11-17T06:23:23.507Z,936.0369263
2022-11-17T06:24:23.988Z,936.0491943
2022-11-17T06:25:24.468Z,936.1090088
2022-11-17T06:26:24.860Z,936.0708618
2022-11-17T06:27:25.305Z,936.1227417
2022-11-17T06:28:25.673Z,936.1565552
2022-11-17T06:29:26.151Z,936.1558838
2022-11-17T06:30:26.604Z,936.0823975
2022-11-17T06:31:27.040Z,936.1559448
2022-11-17T06:32:27.633Z,936.2175293
2022-11-17T06:33:28.677Z,936.1958008
2022-11-17T06:34:29.678Z,936.225647
2022-11-17T06:35:30.129Z,936.2840576
2022-11-17T06:36:30.585Z,936.3065796
2022-11-17T06:37:31.186Z,936.2856445
2022-11-17T06:38:31.494Z,936.288269
2022-11-17T06:39:31.924Z,936.2697144
2022-11-17T06:40:33.009Z,936.3031006
2022-11-17T06:41:33.446Z,936.2924805
2022-11-17T06:42:33.940Z,936.3824463
2022-11-17T11:53:29.842Z,936.8723145
2022-11-17T11:54:30.213Z,936.9163818
2022-11-17T11:55:31.292Z,936.93396
2022-11-17T11:56:31.775Z,936.916748
2022-11-17T11:57:32.261Z,936.8711548
2022-11-17T11:58:33.503Z,936.8847046
2022-11-17T11:59:33.932Z,936.8626709
2022-11-17T12:00:34.457Z,936.819519
2022-11-17T12:02:06.567Z,936.8121948
2022-11-17T12:03:07.040Z,936.9120483
2022-11-17T12:04:07.474Z,936.897522
2022-11-17T12:05:07.877Z,936.9195557
2022-11-17T12:06:09.256Z,936.9309082
2022-11-17T12:07:10.051Z,936.9422607
2022-11-17T12:08:10.858Z,936.9902954
2022-11-17T12:09:10.704Z,937.0578003
2022-11-17T12:10:11.139Z,937.0220337
2022-11-17T12:11:11.577Z,936.9675903
2022-11-17T12:12:12.329Z,937.0170288
2022-11-17T12:13:12.632Z,936.9375
2022-11-17T12:14:13.484Z,936.9620361
2022-11-17T12:15:14.025Z,936.9309082
2022-11-17T12:16:14.538Z,936.9328613
2022-11-17T12:17:15.063Z,936.9660645
2022-11-17T12:18:15.560Z,936.9765625
2022-11-17T12:19:16.015Z,936.9407959
2022-11-17T12:20:16.447Z,936.869873
2022-11-17T12:21:16.862Z,936.8512573
2022-11-17T12:22:17.325Z,936.8724976
2022-11-17T12:23:17.847Z,936.9092407
2022-11-17T12:24:18.294Z,936.9003296
2022-11-17T12:25:19.550Z,936.9076538
2022-11-17T12:26:19.986Z,936.901123
2022-11-17T12:27:20.392Z,936.9453735
2022-11-17T12:28:21.000Z,936.90625
2022-11-17T12:29:21.467Z,936.8464355
2022-11-17T12:30:21.967Z,936.8966675
2022-11-17T12:31:23.524Z,936.9039307
2022-11-17T12:32:24.503Z,936.8120117
2022-11-17T12:33:24.405Z,936.8640747
2022-11-17T12:34:24.870Z,936.8778076
2022-11-17T12:35:26.029Z,936.8126831
2022-11-17T12:36:30.608Z,936.8203735
2022-11-17T12:37:27.530Z,936.8634644
2022-11-17T12:38:28.585Z,936.859375
2022-11-17T12:39:29.073Z,936.8161621
2022-11-17T12:40:29.524Z,936.7576294
2022-11-17T12:41:29.961Z,936.8690796
2022-11-17T12:42:30.586Z,936.9099731
2022-11-17T12:43:31.050Z,936.8637695
2022-11-17T12:44:32.091Z,936.8660889
2022-11-17T12:45:38.938Z,936.8738403
2022-11-17T12:46:33.985Z,936.9665527
2022-11-17T12:48:32.476Z,936.9456177
2022-11-17T12:49:05.498Z,936.9816895
2022-11-17T12:50:05.924Z,936.9963989
2022-11-17T12:51:06.915Z,936.9940796
2022-11-17T12:52:07.794Z,936.8763428
2022-11-17T12:53:08.257Z,936.8366699
2022-11-17T12:54:08.636Z,936.8292236
2022-11-17T12:55:10.820Z,936.7548218
2022-11-17T12:56:10.764Z,936.770874
2022-11-17T12:57:11.204Z,936.7765503
2022-11-17T12:58:12.190Z,936.8095093
2022-11-17T12:59:12.839Z,936.7629395
2022-11-17T13:00:13.316Z,936.8595581
2022-11-17T13:01:14.602Z,936.9632568
2022-11-17T13:02:14.955Z,937.0092163
2022-11-17T13:03:16.293Z,937.0764771
2022-11-17T13:04:16.835Z,937.1576538
2022-11-17T13:05:17.559Z,937.0606079
2022-11-17T13:06:34.965Z,936.913269
2022-11-17T13:07:20.407Z,936.9472046
2022-11-17T13:08:20.788Z,936.8688965
2022-11-17T13:09:21.201Z,936.8826294
2022-11-17T13:10:22.744Z,936.7904663
2022-11-17T13:11:23.625Z,936.875061
2022-11-17T13:12:24.067Z,936.8549805
2022-11-17T13:13:25.146Z,936.8770142
2022-11-17T13:14:25.329Z,936.9537354
2022-11-17T13:15:25.765Z,937.0122681
2022-11-17T13:16:26.775Z,937.0304565
2022-11-17T13:17:27.270Z,937.0153198
2022-11-17T13:18:28.120Z,937.0253906
2022-11-17T13:19:28.680Z,937.050293
2022-11-17T13:20:30.033Z,937.0423584
2022-11-17T13:21:30.522Z,937.203064
2022-11-17T13:22:31.091Z,937.380249
2022-11-17T13:23:31.629Z,937.4120483
2022-11-17T13:24:32.126Z,937.4796753
2022-11-17T13:25:32.577Z,937.4612427
2022-11-17T13:27:04.572Z,937.6126709
2022-11-17T13:28:05.640Z,937.5283813
2022-11-17T13:29:06.583Z,937.6751709
2022-11-17T13:30:07.132Z,937.548645
2022-11-17T13:31:07.518Z,937.6634521
2022-11-17T13:32:08.042Z,937.6607666
2022-11-17T13:33:09.336Z,937.6984253
2022-11-17T13:34:09.817Z,937.7106323
2022-11-17T13:35:10.351Z,937.6157837
2022-11-17T13:36:11.789Z,937.548645
2022-11-17T13:37:12.246Z,937.5125732
2022-11-17T13:38:12.755Z,937.2537231
2022-11-17T13:39:13.373Z,937.2653198
2022-11-17T13:40:14.019Z,937.2781982
2022-11-17T13:41:14.593Z,937.3223267
2022-11-17T13:42:15.058Z,937.2379761
2022-11-17T13:43:15.603Z,937.2746582
2022-11-17T13:44:16.395Z,937.3535156
2022-11-17T13:45:16.747Z,937.3238525
2022-11-17T13:46:17.780Z,937.4631958
2022-11-17T13:47:20.708Z,937.4237671
2022-11-17T13:48:18.833Z,937.3858032
2022-11-17T13:49:19.379Z,937.5270386
2022-11-17T13:50:19.900Z,937.3688354
2022-11-17T13:51:20.423Z,937.2789307
2022-11-17T13:52:20.870Z,937.28125
2022-11-17T13:53:21.299Z,937.2435913
2022-11-17T13:54:21.826Z,937.1853638
2022-11-17T13:55:22.715Z,937.1350098
2022-11-17T13:56:23.810Z,937.1610107
2022-11-17T13:57:24.743Z,937.1408081
2022-11-17T13:58:26.936Z,937.0739136
2022-11-17T13:59:25.829Z,937.1030273
2022-11-17T14:00:26.331Z,937.0915527
2022-11-17T14:01:27.949Z,937.0462646
2022-11-17T14:02:28.325Z,937.060791
2022-11-17T14:03:28.805Z,936.9963989
2022-11-17T14:04:29.321Z,937.0297852
2022-11-17T14:05:29.845Z,937.0004883
2022-11-17T14:06:31.310Z,936.9971924
2022-11-17T14:07:31.902Z,936.7768555
2022-11-17T14:08:32.232Z,936.8864136
2022-11-17T14:09:32.801Z,936.7335815
2022-11-17T14:11:03.933Z,936.6766968
2022-11-17T14:12:04.429Z,936.6376343
2022-11-17T14:13:04.906Z,936.6853638
2022-11-17T14:14:05.407Z,936.6235962
2022-11-17T14:15:05.905Z,936.7142944
2022-11-17T14:16:07.058Z,936.7606201
2022-11-17T14:17:07.566Z,936.6833496
2022-11-17T14:18:08.069Z,936.7246704
2022-11-17T14:19:08.560Z,936.6221924
2022-11-17T14:20:09.101Z,936.6643677
2022-11-17T14:21:10.287Z,936.6026611
2022-11-17T14:22:13.230Z,936.5976563
2022-11-17T14:23:11.375Z,936.5790405
2022-11-17T14:24:12.152Z,936.5940552
2022-11-17T14:25:12.282Z,936.598877
2022-11-17T14:26:13.534Z,936.5509644
2022-11-17T14:27:14.063Z,936.5612793
2022-11-17T14:28:14.626Z,936.52948
2022-11-17T14:29:15.096Z,936.4702148
2022-11-17T14:30:15.729Z,936.4389038
2022-11-17T14:31:16.286Z,936.3568726
2022-11-17T14:32:16.810Z,936.3812256
2022-11-17T14:33:18.312Z,936.3065796
2022-11-17T14:34:18.824Z,936.2843628
2022-11-17T14:35:19.485Z,936.2668457
2022-11-17T14:36:20.571Z,936.3252563
2022-11-17T14:37:21.080Z,936.2896118
2022-11-17T14:38:21.687Z,936.2768555
2022-11-17T14:39:22.015Z,936.2404785
2022-11-17T14:40:22.794Z,936.2564087
2022-11-17T14:41:23.307Z,936.2244263
2022-11-17T14:42:23.929Z,936.1431274
2022-11-17T14:43:25.326Z,936.2373657
2022-11-17T14:44:25.753Z,936.1340332
2022-11-17T14:45:26.236Z,936.0722046
2022-11-17T14:46:27.569Z,936.1165771
2022-11-17T14:47:28.062Z,936.0898438
2022-11-17T14:48:28.596Z,936.1776733
2022-11-17T14:49:29.018Z,936.097168
2022-11-17T14:50:29.484Z,936.0759888
2022-11-17T14:51:30.026Z,936.0257568
2022-11-17T14:52:30.491Z,936.0181274
2022-11-17T14:53:30.965Z,935.9945068
2022-11-17T14:54:31.546Z,935.9710083
2022-11-17T14:55:31.989Z,935.9173584
2022-11-17T14:56:33.071Z,935.8345337
2022-11-17T14:58:03.828Z,935.8392334
2022-11-17T14:59:04.322Z,935.8839111
2022-11-17T15:00:04.786Z,935.8043823
2022-11-17T15:01:05.269Z,935.7702637
2022-11-17T15:02:06.605Z,935.74823
2022-11-17T15:03:07.230Z,935.7807617
2022-11-17T15:04:34.390Z,935.7798462
2022-11-17T15:05:08.115Z,935.7042847
2022-11-17T15:06:09.537Z,935.7262573
2022-11-17T15:07:10.201Z,935.7332764
2022-11-17T15:08:10.672Z,935.730957
2022-11-17T15:09:11.187Z,935.7307739
2022-11-17T15:10:11.637Z,935.7335205
2022-11-17T15:11:12.083Z,935.6918945
2022-11-17T15:12:12.660Z,935.6854858
2022-11-17T15:13:13.111Z,935.6448975
2022-11-17T15:14:14.278Z,935.6617432
2022-11-17T15:15:14.158Z,935.7008057
2022-11-17T15:16:14.644Z,935.6243896
2022-11-17T15:17:15.744Z,935.6115112
2022-11-17T15:18:16.265Z,935.628418
2022-11-17T15:19:16.803Z,935.6034546
2022-11-17T15:20:17.309Z,935.5861816
2022-11-17T15:21:17.764Z,935.4855347
2022-11-17T15:22:18.311Z,935.4742432
2022-11-17T15:23:18.931Z,935.4611816
2022-11-17T15:24:19.499Z,935.3849487
2022-11-17T15:25:20.027Z,935.3677368
2022-11-17T15:27:31.270Z,935.2842407
2022-11-17T15:28:31.754Z,935.177002
2022-11-17T15:30:03.551Z,935.2128906
2022-11-17T15:31:04.603Z,935.1740723
2022-11-17T15:32:05.052Z,935.1818848
2022-11-17T15:33:06.048Z,935.1812744
2022-11-17T15:34:06.526Z,935.1601563
2022-11-17T15:35:07.195Z,935.1047363
2022-11-17T15:36:07.572Z,935.1054688
2022-11-17T15:37:08.829Z,935.0421143
2022-11-17T15:38:09.317Z,935.0285034
2022-11-17T15:39:09.794Z,935.0374146
2022-11-17T15:40:12.115Z,935.0251465
2022-11-17T15:41:11.102Z,934.9941406
2022-11-17T15:42:11.681Z,934.9334106
2022-11-17T15:43:12.106Z,934.8894043
2022-11-17T15:44:12.568Z,934.8812256
2022-11-17T15:45:12.982Z,934.887085
2022-11-17T15:46:14.277Z,934.9050293
2022-11-17T15:47:15.287Z,934.9243164
2022-11-17T15:48:18.756Z,934.8984375
2022-11-17T15:49:16.529Z,934.8775024
2022-11-17T15:50:16.653Z,934.8499756
2022-11-17T15:51:17.115Z,934.8549805
2022-11-17T15:52:30.089Z,934.7940674
2022-11-17T15:53:18.467Z,934.8240356
2022-11-17T15:54:21.012Z,934.8395386
2022-11-17T15:55:19.336Z,934.8435669
2022-11-17T15:56:19.776Z,934.8250122
2022-11-17T15:57:20.805Z,934.821106
2022-11-17T15:58:21.249Z,934.8334351
2022-11-17T15:59:21.717Z,934.8293457
2022-11-17T16:00:22.167Z,934.8352051
2022-11-17T16:01:22.783Z,934.8128052
2022-11-17T16:02:23.193Z,934.7991943
2022-11-17T16:03:24.535Z,934.7805176
2022-11-17T16:04:25.047Z,934.7977295
2022-11-17T16:05:25.533Z,934.7849731
2022-11-17T16:06:26.608Z,934.7955322
2022-11-17T16:07:27.614Z,934.7617798
2022-11-17T16:08:28.152Z,934.7982178
2022-11-17T16:09:28.701Z,934.8043823
2022-11-17T16:10:29.311Z,934.8052979
2022-11-17T16:11:29.930Z,934.828064
2022-11-17T16:12:30.216Z,934.7940674
2022-11-17T16:13:30.619Z,934.8301392
2022-11-17T16:14:31.207Z,934.7840576